createdAt,value
2018-03-24T00:01:02.154Z,6.30
2018-03-24T00:03:29.672Z,6.30
2018-03-24T00:05:57.204Z,6.30
2018-03-24T00:08:24.719Z,6.30
2018-03-24T00:10:52.235Z,6.30
2018-03-24T00:13:19.756Z,6.30
2018-03-24T00:15:47.276Z,6.40
2018-03-24T00:18:14.795Z,6.40
2018-03-24T00:20:42.324Z,6.40
2018-03-24T00:23:09.844Z,6.30
2018-03-24T00:25:37.375Z,6.30
2018-03-24T00:28:04.890Z,6.30
2018-03-24T00:30:33.174Z,6.30
2018-03-24T00:33:00.708Z,6.30
2018-03-24T00:35:28.229Z,6.30
2018-03-24T00:37:55.756Z,6.30
2018-03-24T00:40:23.280Z,6.30
2018-03-24T00:42:50.816Z,6.30
2018-03-24T00:45:18.332Z,6.30
2018-03-24T00:47:46.628Z,6.20
2018-03-24T00:50:14.164Z,6.30
2018-03-24T00:52:41.684Z,6.20
2018-03-24T00:55:09.209Z,6.20
2018-03-24T00:57:36.735Z,6.20
2018-03-24T01:00:04.261Z,6.20
2018-03-24T01:02:31.780Z,6.10
2018-03-24T01:05:00.851Z,6.20
2018-03-24T01:07:28.384Z,6.20
2018-03-24T01:09:55.997Z,6.10
2018-03-24T01:12:23.467Z,6.10
2018-03-24T01:14:51.755Z,6.10
2018-03-24T01:17:19.296Z,6.10
2018-03-24T01:19:47.583Z,6.10
2018-03-24T01:22:15.112Z,6.10
2018-03-24T01:24:42.655Z,6.10
2018-03-24T01:27:10.182Z,6.10
2018-03-24T01:29:37.696Z,6.00
2018-03-24T01:32:05.220Z,6.00
2018-03-24T01:34:32.734Z,6.00
2018-03-24T01:37:01.031Z,6.00
2018-03-24T01:39:29.128Z,6.00
2018-03-24T01:41:56.652Z,6.00
2018-03-24T01:44:24.984Z,6.00
2018-03-24T01:46:52.522Z,6.00
2018-03-24T01:49:20.091Z,6.10
2018-03-24T01:51:47.604Z,6.00
2018-03-24T01:54:15.128Z,6.10
2018-03-24T01:56:42.653Z,6.10
2018-03-24T01:59:10.172Z,6.10
2018-03-24T02:01:37.735Z,6.00
2018-03-24T02:04:05.261Z,6.00
2018-03-24T02:06:32.876Z,6.00
2018-03-24T02:09:01.216Z,6.00
2018-03-24T02:11:28.742Z,6.00
2018-03-24T02:13:56.271Z,6.00
2018-03-24T02:16:24.299Z,6.00
2018-03-24T02:18:51.816Z,6.00
2018-03-24T02:21:21.246Z,6.00
2018-03-24T02:23:48.771Z,6.00
2018-03-24T02:26:16.301Z,6.00
2018-03-24T02:28:43.820Z,6.00
2018-03-24T02:31:11.340Z,5.90
2018-03-24T02:33:39.637Z,6.00
2018-03-24T02:36:07.156Z,6.00
2018-03-24T02:38:34.724Z,6.00
2018-03-24T02:41:02.259Z,6.00
2018-03-24T02:43:29.773Z,6.00
2018-03-24T02:45:57.297Z,5.90
2018-03-24T02:48:25.573Z,5.90
2018-03-24T02:50:53.085Z,5.90
2018-03-24T02:53:20.602Z,5.90
2018-03-24T02:55:48.125Z,5.90
2018-03-24T02:58:15.649Z,5.90
2018-03-24T03:00:43.172Z,6.00
2018-03-24T03:03:10.692Z,6.00
2018-03-24T03:05:39.115Z,6.00
2018-03-24T03:08:06.634Z,6.00
2018-03-24T03:10:34.147Z,5.90
2018-03-24T03:13:01.667Z,6.00
2018-03-24T03:15:29.207Z,5.90
2018-03-24T03:17:56.723Z,6.00
2018-03-24T03:20:24.248Z,6.00
2018-03-24T03:22:51.755Z,6.00
2018-03-24T03:25:19.325Z,6.00
2018-03-24T03:27:46.851Z,6.00
2018-03-24T03:33:14.208Z,5.90
2018-03-24T03:35:41.728Z,5.90
2018-03-24T03:38:09.255Z,5.90
2018-03-24T03:40:36.776Z,5.80
2018-03-24T03:43:04.323Z,5.90
2018-03-24T03:45:31.835Z,5.90
2018-03-24T03:47:59.352Z,5.90
2018-03-24T03:50:26.864Z,5.90
2018-03-24T03:52:54.418Z,5.90
2018-03-24T03:55:21.933Z,5.90
2018-03-24T03:57:49.448Z,5.90
2018-03-24T04:00:16.963Z,5.90
2018-03-24T04:02:44.479Z,5.80
2018-03-24T04:05:12.755Z,5.90
2018-03-24T04:07:40.287Z,5.80
2018-03-24T04:10:07.811Z,5.90
2018-03-24T04:12:35.371Z,5.90
2018-03-24T04:15:02.900Z,5.80
2018-03-24T04:17:30.417Z,5.80
2018-03-24T04:19:57.940Z,5.80
2018-03-24T04:22:25.483Z,5.80
2018-03-24T04:24:53.012Z,5.80
2018-03-24T04:27:20.536Z,5.80
2018-03-24T04:29:48.048Z,5.70
2018-03-24T04:32:15.564Z,5.80
2018-03-24T04:34:43.083Z,5.80
2018-03-24T04:37:10.608Z,5.80
2018-03-24T04:39:38.153Z,5.80
2018-03-24T04:42:05.663Z,5.70
2018-03-24T04:44:33.942Z,5.70
2018-03-24T04:47:01.467Z,5.70
2018-03-24T04:49:29.019Z,5.70
2018-03-24T04:51:56.634Z,5.70
2018-03-24T04:54:24.202Z,5.70
2018-03-24T04:56:52.497Z,5.60
2018-03-24T04:59:20.029Z,5.60
2018-03-24T05:01:49.032Z,5.60
2018-03-24T05:04:17.325Z,5.60
2018-03-24T05:06:44.837Z,5.60
2018-03-24T05:09:12.410Z,5.70
2018-03-24T05:11:39.947Z,5.70
2018-03-24T05:14:07.483Z,5.70
2018-03-24T05:16:34.994Z,5.70
2018-03-24T05:19:03.292Z,5.70
2018-03-24T05:21:31.159Z,5.70
2018-03-24T05:23:59.435Z,5.70
2018-03-24T05:26:26.948Z,5.70
2018-03-24T05:28:54.508Z,5.70
2018-03-24T05:31:21.999Z,5.70
2018-03-24T05:33:49.524Z,5.70
2018-03-24T05:36:17.053Z,5.70
2018-03-24T05:38:44.580Z,5.70
2018-03-24T05:41:12.856Z,5.70
2018-03-24T05:43:40.391Z,5.70
2018-03-24T05:46:07.945Z,5.70
2018-03-24T05:48:35.505Z,5.80
2018-03-24T05:51:03.001Z,5.80
2018-03-24T05:53:30.512Z,5.80
2018-03-24T05:55:58.028Z,5.80
2018-03-24T05:58:25.567Z,5.80
2018-03-24T06:00:53.116Z,5.80
2018-03-24T06:03:20.635Z,5.80
2018-03-24T06:05:48.163Z,5.80
2018-03-24T06:08:16.455Z,5.80
2018-03-24T06:10:43.968Z,5.80
2018-03-24T06:13:11.483Z,5.80
2018-03-24T06:15:38.996Z,5.90
2018-03-24T06:18:06.517Z,5.90
2018-03-24T06:20:34.040Z,5.90
2018-03-24T06:23:01.579Z,5.90
2018-03-24T06:25:29.187Z,5.90
2018-03-24T06:27:56.728Z,5.90
2018-03-24T06:33:26.360Z,5.90
2018-03-24T06:35:53.882Z,5.90
2018-03-24T06:38:21.450Z,6.00
2018-03-24T06:40:48.944Z,6.00
2018-03-24T06:43:16.578Z,5.90
2018-03-24T06:45:44.080Z,6.00
2018-03-24T06:48:11.676Z,6.00
2018-03-24T06:50:39.224Z,6.00
2018-03-24T06:53:06.766Z,6.00
2018-03-24T06:55:34.284Z,6.10
2018-03-24T06:58:01.813Z,6.10
2018-03-24T07:00:29.340Z,6.20
2018-03-24T07:02:56.855Z,6.20
2018-03-24T07:05:24.380Z,6.10
2018-03-24T07:07:51.898Z,6.10
2018-03-24T07:10:19.433Z,6.10
2018-03-24T07:12:46.950Z,6.10
2018-03-24T07:15:14.482Z,6.00
2018-03-24T07:17:42.764Z,6.20
2018-03-24T07:20:10.284Z,6.20
2018-03-24T07:22:37.821Z,6.20
2018-03-24T07:25:05.344Z,6.20
2018-03-24T07:27:33.628Z,6.20
2018-03-24T07:30:01.916Z,6.20
2018-03-24T07:32:29.456Z,6.20
2018-03-24T07:34:57.108Z,6.30
2018-03-24T07:37:24.620Z,6.30
2018-03-24T07:39:52.135Z,6.40
2018-03-24T07:42:20.452Z,6.30
2018-03-24T07:44:48.320Z,6.30
2018-03-24T07:47:16.147Z,6.40
2018-03-24T07:49:44.039Z,6.40
2018-03-24T07:52:11.576Z,6.40
2018-03-24T07:54:39.866Z,6.40
2018-03-24T07:57:08.787Z,6.40
2018-03-24T07:59:36.321Z,6.40
2018-03-24T08:02:04.114Z,6.50
2018-03-24T08:04:31.709Z,6.50
2018-03-24T08:06:59.404Z,6.50
2018-03-24T08:09:27.683Z,6.50
2018-03-24T08:11:55.225Z,6.50
2018-03-24T08:14:22.742Z,6.60
2018-03-24T08:16:50.291Z,6.60
2018-03-24T08:19:17.802Z,6.60
2018-03-24T08:21:45.324Z,6.70
2018-03-24T08:24:12.843Z,6.70
2018-03-24T08:26:41.119Z,6.90
2018-03-24T08:29:08.718Z,6.90
2018-03-24T08:31:36.283Z,7.10
2018-03-24T08:34:03.803Z,7.10
2018-03-24T08:36:31.332Z,7.10
2018-03-24T08:38:58.923Z,7.10
2018-03-24T08:41:26.456Z,7.10
2018-03-24T08:43:53.973Z,7.10
2018-03-24T08:46:21.517Z,7.10
2018-03-24T08:48:49.808Z,7.30
2018-03-24T08:51:17.341Z,7.30
2018-03-24T08:53:45.644Z,7.30
2018-03-24T08:56:13.179Z,7.30
2018-03-24T08:58:41.479Z,7.30
2018-03-24T09:01:09.059Z,7.30
2018-03-24T09:03:36.606Z,7.40
2018-03-24T09:06:04.127Z,7.40
2018-03-24T09:08:32.440Z,7.50
2018-03-24T09:11:00.007Z,7.60
2018-03-24T09:13:27.547Z,7.60
2018-03-24T09:15:55.837Z,7.70
2018-03-24T09:18:24.164Z,7.70
2018-03-24T09:20:51.696Z,7.70
2018-03-24T09:23:19.217Z,8.00
2018-03-24T09:25:47.498Z,8.20
2018-03-24T09:28:15.782Z,8.40
2018-03-24T09:30:44.100Z,8.60
2018-03-24T09:33:11.639Z,8.60
2018-03-24T09:35:39.170Z,8.80
2018-03-24T09:38:06.736Z,8.90
2018-03-24T09:40:35.031Z,8.80
2018-03-24T09:43:03.304Z,9.10
2018-03-24T09:45:31.597Z,9.20
2018-03-24T09:47:59.107Z,9.10
2018-03-24T09:50:26.608Z,9.10
2018-03-24T09:52:54.252Z,9.00
2018-03-24T09:55:21.722Z,9.40
2018-03-24T09:57:50.025Z,10.20
2018-03-24T10:00:17.560Z,10.20
2018-03-24T10:02:45.866Z,12.40
2018-03-24T10:05:13.397Z,12.40
2018-03-24T10:07:41.707Z,12.60
2018-03-24T10:10:09.266Z,12.50
2018-03-24T10:12:36.840Z,11.90
2018-03-24T10:15:04.374Z,11.30
2018-03-24T10:17:31.890Z,10.50
2018-03-24T10:20:00.214Z,10.30
2018-03-24T10:25:29.093Z,10.30
2018-03-24T10:27:56.647Z,10.30
2018-03-24T10:30:24.212Z,11.10
2018-03-24T10:32:51.723Z,12.00
2018-03-24T10:35:19.243Z,11.40
2018-03-24T10:37:52.338Z,11.70
2018-03-24T10:40:19.851Z,12.40
2018-03-24T10:42:53.095Z,13.20
2018-03-24T10:45:20.628Z,13.20
2018-03-24T10:47:48.153Z,12.80
2018-03-24T10:50:15.675Z,13.20
2018-03-24T10:52:43.236Z,12.40
2018-03-24T10:55:10.769Z,12.00
2018-03-24T10:57:39.030Z,12.30
2018-03-24T11:00:06.564Z,12.80
2018-03-24T11:02:34.087Z,12.90
2018-03-24T11:05:02.382Z,13.20
2018-03-24T11:07:29.928Z,13.20
2018-03-24T11:09:58.208Z,14.60
2018-03-24T11:12:25.779Z,14.50
2018-03-24T11:14:53.286Z,13.90
2018-03-24T11:17:20.808Z,14.40
2018-03-24T11:19:48.332Z,14.00
2018-03-24T11:22:15.867Z,13.30
2018-03-24T11:24:43.374Z,12.30
2018-03-24T11:27:11.656Z,13.10
2018-03-24T11:29:39.187Z,13.10
2018-03-24T11:32:06.714Z,14.10
2018-03-24T11:34:35.028Z,14.30
2018-03-24T11:37:02.559Z,14.30
2018-03-24T11:39:30.796Z,13.30
2018-03-24T11:41:58.320Z,13.50
2018-03-24T11:44:25.853Z,13.60
2018-03-24T11:46:53.452Z,13.80
2018-03-24T11:49:20.970Z,13.70
2018-03-24T11:51:48.491Z,14.10
2018-03-24T11:54:29.208Z,14.70
2018-03-24T11:56:56.733Z,14.70
2018-03-24T11:59:24.256Z,14.90
2018-03-24T12:01:51.846Z,15.70
2018-03-24T12:04:19.352Z,15.40
2018-03-24T12:06:46.916Z,14.70
2018-03-24T12:09:14.454Z,14.90
2018-03-24T12:11:42.051Z,15.10
2018-03-24T12:14:09.587Z,14.80
2018-03-24T12:16:37.113Z,14.50
2018-03-24T12:19:04.684Z,14.60
2018-03-24T12:21:32.196Z,14.70
2018-03-24T12:23:59.719Z,14.80
2018-03-24T12:26:27.324Z,14.30
2018-03-24T12:28:54.851Z,13.90
2018-03-24T12:31:22.381Z,13.70
2018-03-24T12:33:49.894Z,14.40
2018-03-24T12:36:17.432Z,15.20
2018-03-24T12:38:44.962Z,14.80
2018-03-24T12:41:13.261Z,14.60
2018-03-24T12:43:40.792Z,14.60
2018-03-24T12:46:09.938Z,14.40
2018-03-24T12:48:38.412Z,14.30
2018-03-24T12:51:05.956Z,14.50
2018-03-24T12:53:33.482Z,14.70
2018-03-24T12:56:01.775Z,15.20
2018-03-24T12:58:30.064Z,15.20
2018-03-24T13:00:57.670Z,15.10
2018-03-24T13:03:25.220Z,14.70
2018-03-24T13:05:52.742Z,14.40
2018-03-24T13:08:20.277Z,14.10
2018-03-24T13:10:48.607Z,15.10
2018-03-24T13:13:16.132Z,15.00
2018-03-24T13:15:43.668Z,14.90
2018-03-24T13:18:11.203Z,14.20
2018-03-24T13:20:38.720Z,14.30
2018-03-24T13:23:06.246Z,14.20
2018-03-24T13:25:33.775Z,14.60
2018-03-24T13:28:01.320Z,15.10
2018-03-24T13:30:28.847Z,15.50
2018-03-24T13:32:56.388Z,15.90
2018-03-24T13:35:23.946Z,15.50
2018-03-24T13:37:51.546Z,15.40
2018-03-24T13:40:19.160Z,15.60
2018-03-24T13:42:46.696Z,15.60
2018-03-24T13:45:14.218Z,14.90
2018-03-24T13:47:41.750Z,14.90
2018-03-24T13:50:09.303Z,15.20
2018-03-24T13:52:36.836Z,15.20
2018-03-24T13:55:04.376Z,14.90
2018-03-24T13:57:32.058Z,14.70
2018-03-24T13:59:59.582Z,14.40
2018-03-24T14:02:27.112Z,14.20
2018-03-24T14:04:54.637Z,14.40
2018-03-24T14:07:23.092Z,14.50
2018-03-24T14:09:50.651Z,14.40
2018-03-24T14:12:18.210Z,14.20
2018-03-24T14:14:46.499Z,14.20
2018-03-24T14:17:14.024Z,14.20
2018-03-24T14:19:41.549Z,14.20
2018-03-24T14:22:09.081Z,14.30
2018-03-24T14:24:36.628Z,14.70
2018-03-24T14:27:04.155Z,14.70
2018-03-24T14:29:31.682Z,14.60
2018-03-24T14:31:59.235Z,14.70
2018-03-24T14:34:26.764Z,14.50
2018-03-24T14:36:54.332Z,14.70
2018-03-24T14:39:22.640Z,14.30
2018-03-24T14:41:50.158Z,14.20
2018-03-24T14:44:18.446Z,13.80
2018-03-24T14:46:45.980Z,13.70
2018-03-24T14:49:13.509Z,13.50
2018-03-24T14:51:41.020Z,13.50
2018-03-24T14:54:08.581Z,13.60
2018-03-24T14:56:36.331Z,13.60
2018-03-24T14:59:03.811Z,13.50
2018-03-24T15:01:31.391Z,13.50
2018-03-24T15:03:58.975Z,13.50
2018-03-24T15:06:26.494Z,13.60
2018-03-24T15:08:54.032Z,13.40
2018-03-24T15:11:21.566Z,13.50
2018-03-24T15:13:49.184Z,13.40
2018-03-24T15:16:16.708Z,13.60
2018-03-24T15:18:44.231Z,13.70
2018-03-24T15:21:11.764Z,13.80
2018-03-24T15:23:40.049Z,13.80
2018-03-24T15:26:08.345Z,13.40
2018-03-24T15:28:35.889Z,13.30
2018-03-24T15:34:21.157Z,13.40
2018-03-24T15:36:48.704Z,13.50
2018-03-24T15:39:16.298Z,13.50
2018-03-24T15:41:43.787Z,13.50
2018-03-24T15:44:11.311Z,13.50
2018-03-24T15:46:43.272Z,13.40
2018-03-24T15:49:10.816Z,13.30
2018-03-24T15:51:38.941Z,13.20
2018-03-24T15:54:06.472Z,13.00
2018-03-24T15:56:33.988Z,13.00
2018-03-24T15:59:01.507Z,12.90
2018-03-24T16:01:29.045Z,13.10
2018-03-24T16:03:56.616Z,13.20
2018-03-24T16:06:24.582Z,13.10
2018-03-24T16:08:52.205Z,13.00
2018-03-24T16:11:19.758Z,12.90
2018-03-24T16:13:47.277Z,12.60
2018-03-24T16:16:15.587Z,12.70
2018-03-24T16:18:43.147Z,12.60
2018-03-24T16:21:11.087Z,12.60
2018-03-24T16:23:38.683Z,12.60
2018-03-24T16:26:07.712Z,12.50
2018-03-24T16:28:35.268Z,12.50
2018-03-24T16:31:02.921Z,12.50
2018-03-24T16:33:31.275Z,12.50
2018-03-24T16:35:58.803Z,12.40
2018-03-24T16:38:27.532Z,12.40
2018-03-24T16:40:55.186Z,12.30
2018-03-24T16:43:22.764Z,12.40
2018-03-24T16:45:50.628Z,12.40
2018-03-24T16:48:18.458Z,12.30
2018-03-24T16:50:46.744Z,12.30
2018-03-24T16:53:14.332Z,12.30
2018-03-24T16:55:41.851Z,12.40
2018-03-24T16:58:10.237Z,12.40
2018-03-24T17:00:37.754Z,12.30
2018-03-24T17:03:05.282Z,12.40
2018-03-24T17:05:32.804Z,12.30
2018-03-24T17:08:01.100Z,12.30
2018-03-24T17:10:29.321Z,12.30
2018-03-24T17:12:56.852Z,12.20
2018-03-24T17:15:24.470Z,12.10
2018-03-24T17:17:51.991Z,12.10
2018-03-24T17:20:19.512Z,12.10
2018-03-24T17:22:47.073Z,12.00
2018-03-24T17:25:14.600Z,12.00
2018-03-24T17:27:42.127Z,11.90
2018-03-24T17:30:09.646Z,11.90
2018-03-24T17:32:38.078Z,11.80
2018-03-24T17:35:05.615Z,11.80
2018-03-24T17:37:33.128Z,11.80
2018-03-24T17:40:00.670Z,11.70
2018-03-24T17:42:28.291Z,11.70
2018-03-24T17:44:55.817Z,11.60
2018-03-24T17:47:23.398Z,11.60
2018-03-24T17:49:51.064Z,11.60
2018-03-24T17:52:19.456Z,11.40
2018-03-24T17:54:46.982Z,11.40
2018-03-24T17:57:14.530Z,11.30
2018-03-24T17:59:42.200Z,11.30
2018-03-24T18:02:09.887Z,11.20
2018-03-24T18:04:38.734Z,11.10
2018-03-24T18:07:06.373Z,11.10
2018-03-24T18:09:33.903Z,11.00
2018-03-24T18:12:02.214Z,10.90
2018-03-24T18:14:30.055Z,10.90
2018-03-24T18:16:57.572Z,10.80
2018-03-24T18:19:25.103Z,10.70
2018-03-24T18:21:52.688Z,10.60
2018-03-24T18:24:20.305Z,10.50
2018-03-24T18:26:48.246Z,10.40
2018-03-24T18:29:16.181Z,10.30
2018-03-24T18:31:43.800Z,10.30
2018-03-24T18:34:12.110Z,10.10
2018-03-24T18:36:39.911Z,10.00
2018-03-24T18:39:07.503Z,9.90
2018-03-24T18:41:35.058Z,9.90
2018-03-24T18:44:03.414Z,9.80
2018-03-24T18:46:31.169Z,9.80
2018-03-24T18:48:58.803Z,9.70
2018-03-24T18:51:26.402Z,9.60
2018-03-24T18:53:53.971Z,9.60
2018-03-24T18:56:21.553Z,9.60
2018-03-24T18:58:49.171Z,9.50
2018-03-24T19:01:16.725Z,9.50
2018-03-24T19:03:44.333Z,9.40
2018-03-24T19:06:12.724Z,9.20
2018-03-24T19:08:41.013Z,9.20
2018-03-24T19:11:08.550Z,9.20
2018-03-24T19:13:36.085Z,9.20
2018-03-24T19:16:03.737Z,9.10
2018-03-24T19:18:31.333Z,9.00
2018-03-24T19:20:59.732Z,8.90
2018-03-24T19:23:28.092Z,8.90
2018-03-24T19:25:55.688Z,8.80
2018-03-24T19:28:23.219Z,8.80
2018-03-24T19:30:51.592Z,8.70
2018-03-24T19:33:19.115Z,8.70
2018-03-24T19:35:46.632Z,8.70
2018-03-24T19:38:14.245Z,8.60
2018-03-24T19:40:41.859Z,8.60
2018-03-24T19:43:10.200Z,8.50
2018-03-24T19:45:37.828Z,8.50
2018-03-24T19:48:05.471Z,8.40
2018-03-24T19:50:32.997Z,8.40
2018-03-24T19:53:00.614Z,8.30
2018-03-24T19:55:28.231Z,8.30
2018-03-24T19:57:55.866Z,8.20
2018-03-24T20:00:23.409Z,8.20
2018-03-24T20:02:51.047Z,8.20
2018-03-24T20:05:19.338Z,8.10
2018-03-24T20:07:46.852Z,8.10
2018-03-24T20:10:14.536Z,8.10
2018-03-24T20:12:43.093Z,8.00
2018-03-24T20:15:10.628Z,8.00
2018-03-24T20:17:38.153Z,7.90
2018-03-24T20:20:06.002Z,7.90
2018-03-24T20:22:34.287Z,7.80
2018-03-24T20:25:01.803Z,7.80
2018-03-24T20:27:29.416Z,7.80
2018-03-24T20:29:57.780Z,7.70
2018-03-24T20:32:26.197Z,7.60
2018-03-24T20:34:53.776Z,7.60
2018-03-24T20:37:21.396Z,7.60
2018-03-24T20:39:49.824Z,7.60
2018-03-24T20:42:17.406Z,7.50
2018-03-24T20:44:44.888Z,7.50
2018-03-24T20:47:13.199Z,7.50
2018-03-24T20:49:40.804Z,7.40
2018-03-24T20:52:08.390Z,7.50
2018-03-24T20:54:35.972Z,7.40
2018-03-24T20:57:04.395Z,7.30
2018-03-24T20:59:32.103Z,7.30
2018-03-24T21:02:00.381Z,7.30
2018-03-24T21:04:27.994Z,7.30
2018-03-24T21:06:55.528Z,7.20
2018-03-24T21:09:23.165Z,7.10
2018-03-24T21:11:51.462Z,7.10
2018-03-24T21:14:18.976Z,7.00
2018-03-24T21:16:46.515Z,7.10
2018-03-24T21:19:14.050Z,7.10
2018-03-24T21:21:41.630Z,7.00
2018-03-24T21:24:09.176Z,6.80
2018-03-24T21:26:36.724Z,6.90
2018-03-24T21:29:04.275Z,6.90
2018-03-24T21:31:32.624Z,6.90
2018-03-24T21:34:00.278Z,6.90
2018-03-24T21:36:27.810Z,6.80
2018-03-24T21:38:55.425Z,6.80
2018-03-24T21:41:23.860Z,6.80
2018-03-24T21:43:51.698Z,6.70
2018-03-24T21:46:19.397Z,6.70
2018-03-24T21:48:47.531Z,6.70
2018-03-24T21:51:15.062Z,6.70
2018-03-24T21:53:42.643Z,6.70
2018-03-24T21:56:10.937Z,6.60
2018-03-24T21:58:38.462Z,6.50
2018-03-24T22:01:06.028Z,6.60
2018-03-24T22:03:33.604Z,6.50
2018-03-24T22:06:03.908Z,6.50
2018-03-24T22:08:31.503Z,6.50
2018-03-24T22:10:59.795Z,6.50
2018-03-24T22:13:27.324Z,6.40
2018-03-24T22:15:54.886Z,6.40
2018-03-24T22:18:22.454Z,6.40
2018-03-24T22:20:50.832Z,6.30
2018-03-24T22:23:19.113Z,6.30
2018-03-24T22:25:46.691Z,6.20
2018-03-24T22:28:14.206Z,6.20
2018-03-24T22:30:42.476Z,6.20
2018-03-24T22:33:09.980Z,6.20
2018-03-24T22:35:38.248Z,6.10
2018-03-24T22:38:05.776Z,6.10
2018-03-24T22:40:33.290Z,6.10
2018-03-24T22:43:00.823Z,6.10
2018-03-24T22:45:29.137Z,6.00
2018-03-24T22:47:56.659Z,6.10
2018-03-24T22:50:24.950Z,6.00
2018-03-24T22:52:53.231Z,6.00
2018-03-24T22:55:20.754Z,6.00
2018-03-24T22:57:48.285Z,5.90
2018-03-24T23:00:15.797Z,6.00
2018-03-24T23:02:44.092Z,5.90
2018-03-24T23:05:12.369Z,5.80
2018-03-24T23:07:39.887Z,5.80
2018-03-24T23:10:07.404Z,5.80
2018-03-24T23:12:34.998Z,5.80
2018-03-24T23:15:02.528Z,5.90
2018-03-24T23:17:30.037Z,5.90
2018-03-24T23:19:57.554Z,5.80
2018-03-24T23:22:25.131Z,5.80
2018-03-24T23:24:52.654Z,5.80
2018-03-24T23:27:20.215Z,5.80
2018-03-24T23:29:47.742Z,5.70
2018-03-24T23:32:15.301Z,5.70
2018-03-24T23:34:42.986Z,5.80
2018-03-24T23:37:11.263Z,5.70
2018-03-24T23:39:39.550Z,5.70
2018-03-24T23:42:07.077Z,5.70
2018-03-24T23:44:34.622Z,5.70
2018-03-24T23:47:02.134Z,5.70
2018-03-24T23:49:29.654Z,5.60
2018-03-24T23:51:57.247Z,5.60
2018-03-24T23:54:25.531Z,5.60
2018-03-24T23:56:53.057Z,5.60
2018-03-24T23:59:20.575Z,5.50
